TimeEST,TemperatureF,Dew PointF,Humidity,Sea Level PressureIn,VisibilityMPH,Wind Direction,Wind SpeedMPH,Gust SpeedMPH,PrecipitationIn,Events,Conditions,WindDirDegrees,DateUTC
12:13 AM,32.0,32.0,100,29.65,2.0,Calm,Calm,-,N/A,,Overcast,0,2012-12-10 05:13:00
12:33 AM,32.0,32.0,100,29.64,1.8,Calm,Calm,-,N/A,,Overcast,0,2012-12-10 05:33:00
12:53 AM,32.0,32.0,100,29.64,1.5,Calm,Calm,-,N/A,,Overcast,0,2012-12-10 05:53:00
1:13 AM,32.0,32.0,100,29.63,1.2,Calm,Calm,-,N/A,,Overcast,0,2012-12-10 06:13:00
1:33 AM,32.0,32.0,100,29.62,1.0,Calm,Calm,-,N/A,,Overcast,0,2012-12-10 06:33:00
1:53 AM,32.0,32.0,100,29.61,1.0,Calm,Calm,-,N/A,,Overcast,0,2012-12-10 06:53:00
2:14 AM,32.0,32.0,100,29.60,0.8,Calm,Calm,-,N/A,,Overcast,0,2012-12-10 07:14:00
2:34 AM,32.0,32.0,100,29.60,0.8,Calm,Calm,-,N/A,,Overcast,0,2012-12-10 07:34:00
2:54 AM,32.0,32.0,100,29.61,0.8,WSW,3.5,-,N/A,,Overcast,240,2012-12-10 07:54:00
3:14 AM,32.0,32.0,100,29.61,1.8,SW,3.5,-,N/A,,Overcast,230,2012-12-10 08:14:00
3:54 AM,32.0,32.0,100,29.59,5.0,Calm,Calm,-,N/A,,Overcast,0,2012-12-10 08:54:00
4:14 AM,32.0,32.0,100,29.58,5.0,SW,4.6,-,N/A,,Overcast,220,2012-12-10 09:14:00
4:34 AM,32.0,32.0,100,29.59,4.0,WSW,3.5,-,N/A,,Overcast,240,2012-12-10 09:34:00
4:54 AM,32.0,32.0,100,29.59,5.0,West,6.9,-,N/A,,Overcast,260,2012-12-10 09:54:00
5:14 AM,32.0,32.0,100,29.60,3.0,West,6.9,-,N/A,,Overcast,270,2012-12-10 10:14:00
5:35 AM,32.0,32.0,100,29.59,3.0,West,5.8,-,N/A,,Overcast,260,2012-12-10 10:35:00
5:55 AM,32.0,32.0,100,29.60,5.0,WSW,4.6,-,N/A,Snow,Light Snow,250,2012-12-10 10:55:00
6:15 AM,32.0,32.0,100,29.59,7.0,WSW,4.6,-,N/A,,Overcast,250,2012-12-10 11:15:00
6:35 AM,32.0,32.0,100,29.60,7.0,WSW,4.6,-,N/A,,Overcast,250,2012-12-10 11:35:00
6:55 AM,32.0,32.0,100,29.60,7.0,West,5.8,-,N/A,,Overcast,260,2012-12-10 11:55:00
7:15 AM,32.0,32.0,100,29.59,7.0,Calm,Calm,-,N/A,,Overcast,0,2012-12-10 12:15:00
7:35 AM,32.0,32.0,100,29.61,7.0,West,4.6,-,N/A,,Overcast,260,2012-12-10 12:35:00
7:50 AM,32.0,32.0,100,29.61,7.0,West,5.8,-,N/A,,Overcast,260,2012-12-10 12:50:00
8:10 AM,32.0,32.0,100,29.62,7.0,West,8.1,-,N/A,,Overcast,270,2012-12-10 13:10:00
8:31 AM,32.0,32.0,100,29.63,7.0,West,6.9,-,N/A,,Overcast,260,2012-12-10 13:31:00
8:51 AM,32.0,32.0,100,29.64,10.0,West,8.1,-,N/A,,Overcast,270,2012-12-10 13:51:00
9:11 AM,32.0,32.0,100,29.64,7.0,West,9.2,-,N/A,,Overcast,270,2012-12-10 14:11:00
9:31 AM,32.0,32.0,100,29.65,7.0,West,9.2,-,N/A,,Overcast,280,2012-12-10 14:31:00
9:51 AM,32.0,32.0,100,29.66,10.0,West,9.2,-,N/A,,Overcast,270,2012-12-10 14:51:00
10:11 AM,32.0,32.0,100,29.66,10.0,West,9.2,-,N/A,,Overcast,280,2012-12-10 15:11:00
10:31 AM,32.0,32.0,100,29.66,10.0,WNW,10.4,-,N/A,,Overcast,290,2012-12-10 15:31:00
10:51 AM,32.0,32.0,100,29.67,10.0,West,9.2,-,N/A,,Overcast,280,2012-12-10 15:51:00
11:11 AM,32.0,32.0,100,29.66,10.0,WNW,6.9,-,N/A,,Overcast,300,2012-12-10 16:11:00
11:31 AM,32.0,32.0,100,29.67,10.0,WNW,11.5,-,N/A,,Overcast,300,2012-12-10 16:31:00
11:52 AM,32.0,30.2,93,29.68,10.0,NW,10.4,-,N/A,,Overcast,310,2012-12-10 16:52:00
12:12 PM,32.0,30.2,93,29.68,10.0,NW,10.4,-,N/A,,Overcast,310,2012-12-10 17:12:00
12:32 PM,32.0,30.2,93,29.67,10.0,NW,11.5,-,N/A,,Overcast,310,2012-12-10 17:32:00
12:52 PM,32.0,28.4,87,29.68,10.0,NW,12.7,-,N/A,,Overcast,310,2012-12-10 17:52:00
1:12 PM,32.0,28.4,87,29.68,10.0,NW,10.4,-,N/A,,Overcast,310,2012-12-10 18:12:00
1:32 PM,32.0,28.4,87,29.67,10.0,NW,11.5,-,N/A,,Mostly Cloudy,310,2012-12-10 18:32:00
1:52 PM,32.0,28.4,87,29.68,10.0,NW,12.7,-,N/A,,Mostly Cloudy,310,2012-12-10 18:52:00
2:12 PM,32.0,28.4,87,29.68,10.0,NW,12.7,-,N/A,,Overcast,320,2012-12-10 19:12:00
2:32 PM,32.0,28.4,87,29.68,10.0,NW,12.7,-,N/A,,Mostly Cloudy,320,2012-12-10 19:32:00
2:53 PM,32.0,28.4,87,29.68,10.0,NW,10.4,-,N/A,,Mostly Cloudy,310,2012-12-10 19:53:00
3:13 PM,32.0,28.4,87,29.68,10.0,NW,9.2,-,N/A,,Mostly Cloudy,320,2012-12-10 20:13:00
3:33 PM,32.0,28.4,87,29.69,10.0,NW,11.5,16.1,N/A,,Overcast,320,2012-12-10 20:33:00
3:53 PM,32.0,28.4,87,29.70,10.0,NW,11.5,-,N/A,,Mostly Cloudy,310,2012-12-10 20:53:00
4:13 PM,32.0,28.4,87,29.71,10.0,NW,9.2,-,N/A,,Mostly Cloudy,310,2012-12-10 21:13:00
4:33 PM,32.0,28.4,87,29.71,10.0,NW,9.2,-,N/A,,Overcast,320,2012-12-10 21:33:00
4:53 PM,32.0,26.6,80,29.71,10.0,NW,9.2,16.1,N/A,,Overcast,320,2012-12-10 21:53:00
5:13 PM,32.0,26.6,80,29.72,10.0,NW,13.8,-,N/A,,Overcast,310,2012-12-10 22:13:00
5:34 PM,32.0,26.6,80,29.73,10.0,NW,10.4,-,N/A,,Overcast,310,2012-12-10 22:34:00
5:54 PM,32.0,26.6,80,29.75,10.0,NW,9.2,-,N/A,,Overcast,320,2012-12-10 22:54:00
6:14 PM,32.0,26.6,80,29.76,10.0,NNW,8.1,-,N/A,,Overcast,330,2012-12-10 23:14:00
6:34 PM,32.0,24.8,75,29.77,10.0,NNW,9.2,-,N/A,,Overcast,340,2012-12-10 23:34:00
6:54 PM,32.0,24.8,75,29.78,10.0,NNW,10.4,-,N/A,,Overcast,330,2012-12-10 23:54:00
7:14 PM,30.2,24.8,80,29.79,10.0,NW,10.4,-,N/A,,Overcast,320,2012-12-11 00:14:00
7:34 PM,30.2,24.8,80,29.80,10.0,NNW,5.8,-,N/A,,Overcast,340,2012-12-11 00:34:00
7:54 PM,30.2,24.8,80,29.81,10.0,NNW,8.1,-,N/A,,Overcast,340,2012-12-11 00:54:00
8:14 PM,30.2,23.0,75,29.81,10.0,North,8.1,-,N/A,,Overcast,350,2012-12-11 01:14:00
8:35 PM,30.2,23.0,75,29.82,10.0,NNW,11.5,-,N/A,,Overcast,330,2012-12-11 01:35:00
8:55 PM,30.2,23.0,75,29.81,10.0,NNW,9.2,16.1,N/A,,Overcast,340,2012-12-11 01:55:00
9:15 PM,28.4,23.0,80,29.82,10.0,North,9.2,16.1,N/A,,Overcast,350,2012-12-11 02:15:00
9:55 PM,28.4,21.2,74,29.84,10.0,NNW,8.1,-,N/A,,Overcast,340,2012-12-11 02:55:00
10:15 PM,28.4,21.2,74,29.87,10.0,NNW,9.2,-,N/A,,Overcast,330,2012-12-11 03:15:00
10:35 PM,28.4,21.2,74,29.88,10.0,NNW,5.8,-,N/A,,Overcast,330,2012-12-11 03:35:00
10:55 PM,28.4,21.2,74,29.88,10.0,NW,8.1,-,N/A,,Overcast,320,2012-12-11 03:55:00
11:15 PM,28.4,21.2,74,29.86,7.0,North,6.9,-,N/A,Snow,Light Snow,350,2012-12-11 04:15:00
11:30 PM,26.6,21.2,80,29.87,10.0,North,6.9,-,N/A,Snow,Light Snow,350,2012-12-11 04:30:00
11:50 PM,26.6,21.2,80,29.88,10.0,North,4.6,-,N/A,,Overcast,350,2012-12-11 04:50:00